createdAt,value
2023-05-24T00:01:46.088Z,99026.13
2023-05-24T00:06:49.108Z,99026.25
2023-05-24T00:11:52.117Z,99023.31
2023-05-24T00:16:55.216Z,99020.13
2023-05-24T00:21:58.778Z,99010.88
2023-05-24T00:27:01.865Z,99010.94
2023-05-24T00:32:05.192Z,99012.46
2023-05-24T00:37:08.321Z,99008.27
2023-05-24T00:42:11.316Z,99006.02
2023-05-24T00:47:14.536Z,99004.14
2023-05-24T00:52:18.075Z,99005.63
2023-05-24T00:57:21.820Z,99001.75
2023-05-24T01:02:25.539Z,99005.89
2023-05-24T01:07:41.787Z,99003.55
2023-05-24T01:13:55.704Z,99008.42
2023-05-24T01:19:05.951Z,99001.41
2023-05-24T01:24:58.063Z,99006.64
2023-05-24T01:30:02.278Z,99006.00
2023-05-24T01:35:06.234Z,99008.56
2023-05-24T01:40:10.689Z,99006.35
2023-05-24T01:45:39.724Z,99007.27
2023-05-24T01:50:50.194Z,99011.63
2023-05-24T01:55:59.034Z,99003.13
2023-05-24T02:01:03.004Z,99003.65
2023-05-24T02:06:06.884Z,99011.65
2023-05-24T02:11:09.880Z,99017.06
2023-05-24T02:16:13.683Z,99020.54
2023-05-24T02:21:17.878Z,99018.69
2023-05-24T02:26:20.863Z,99019.31
2023-05-24T02:31:25.967Z,99016.71
2023-05-24T02:36:29.107Z,99015.23
2023-05-24T02:41:32.125Z,99017.11
2023-05-24T02:46:35.151Z,99010.36
2023-05-24T02:51:38.205Z,99019.45
2023-05-24T02:56:41.300Z,99020.86
2023-05-24T03:01:44.492Z,99021.05
2023-05-24T03:06:47.536Z,99026.77
2023-05-24T03:11:51.862Z,99030.75
2023-05-24T03:16:54.955Z,99032.48
2023-05-24T03:21:57.952Z,99039.76
2023-05-24T03:27:01.236Z,99040.15
2023-05-24T03:32:04.443Z,99048.78
2023-05-24T03:37:07.441Z,99045.25
2023-05-24T03:42:10.506Z,99051.60
2023-05-24T03:47:13.467Z,99056.94
2023-05-24T03:52:16.477Z,99058.66
2023-05-24T03:57:19.451Z,99060.04
2023-05-24T04:02:22.537Z,99061.45
2023-05-24T04:07:25.910Z,99058.45
2023-05-24T04:12:28.747Z,99055.73
2023-05-24T04:17:35.131Z,99061.05
2023-05-24T04:22:38.837Z,99064.17
2023-05-24T04:27:41.850Z,99066.86
2023-05-24T04:32:44.818Z,99073.86
2023-05-24T04:37:49.719Z,99086.27
2023-05-24T04:42:52.788Z,99095.45
2023-05-24T04:47:55.659Z,99094.90
2023-05-24T04:52:58.682Z,99095.77
2023-05-24T04:58:01.636Z,99098.58
2023-05-24T05:03:04.758Z,99101.21
2023-05-24T05:08:07.986Z,99103.52
2023-05-24T05:13:11.047Z,99101.55
2023-05-24T05:18:14.325Z,99099.07
2023-05-24T05:23:17.394Z,99103.38
2023-05-24T05:28:20.964Z,99112.14
2023-05-24T05:33:23.981Z,99117.96
2023-05-24T05:38:26.920Z,99124.54
2023-05-24T05:43:30.030Z,99127.64
2023-05-24T05:48:33.015Z,99125.44
2023-05-24T05:53:35.941Z,99134.60
2023-05-24T05:58:39.155Z,99139.88
2023-05-24T06:03:42.243Z,99136.72
2023-05-24T06:08:45.409Z,99133.80
2023-05-24T06:13:48.410Z,99142.11
2023-05-24T06:19:04.687Z,99149.65
2023-05-24T06:24:09.919Z,99159.17
2023-05-24T06:29:14.092Z,99158.02
2023-05-24T06:34:21.402Z,99162.78
2023-05-24T06:39:25.562Z,99173.81
2023-05-24T06:44:34.145Z,99189.08
2023-05-24T06:49:37.131Z,99194.08
2023-05-24T06:54:40.149Z,99206.90
2023-05-24T06:59:43.135Z,99210.83
2023-05-24T07:04:46.220Z,99212.51
2023-05-24T07:09:49.309Z,99216.27
2023-05-24T07:14:52.352Z,99222.66
2023-05-24T07:19:55.348Z,99226.60
2023-05-24T07:24:58.402Z,99236.88
2023-05-24T07:30:01.727Z,99245.88
2023-05-24T07:35:05.802Z,99253.73
2023-05-24T07:40:12.632Z,99259.92
2023-05-24T07:45:15.892Z,99263.89
2023-05-24T07:50:19.277Z,99268.30
2023-05-24T07:55:22.459Z,99272.55
2023-05-24T08:00:25.456Z,99275.45
2023-05-24T08:05:29.063Z,99279.48
2023-05-24T08:10:32.308Z,99284.41
2023-05-24T08:15:35.294Z,99290.73
2023-05-24T08:20:39.283Z,99295.05
2023-05-24T08:25:42.966Z,99297.05
2023-05-24T08:30:46.316Z,99306.39
2023-05-24T08:35:52.416Z,99317.34
2023-05-24T08:40:56.100Z,99320.30
2023-05-24T08:45:59.528Z,99319.83
2023-05-24T08:51:04.106Z,99323.08
2023-05-24T08:56:09.047Z,99331.96
2023-05-24T09:01:14.468Z,99338.77
2023-05-24T09:06:19.319Z,99340.22
2023-05-24T09:11:24.545Z,99346.02
2023-05-24T09:16:28.268Z,99349.15
2023-05-24T09:21:32.878Z,99358.71
2023-05-24T09:26:38.950Z,99361.27
2023-05-24T09:31:43.020Z,99363.61
2023-05-24T09:36:48.629Z,99362.55
2023-05-24T09:41:57.435Z,99367.92
2023-05-24T09:47:06.793Z,99365.42
2023-05-24T09:52:14.430Z,99367.43
2023-05-24T09:57:17.926Z,99369.05
2023-05-24T10:02:23.126Z,99370.70
2023-05-24T10:07:26.884Z,99375.05
2023-05-24T10:12:31.332Z,99376.79
2023-05-24T10:17:34.346Z,99381.23
2023-05-24T10:22:44.085Z,99386.44
2023-05-24T10:27:50.316Z,99391.54
2023-05-24T10:32:56.404Z,99394.64
2023-05-24T10:37:59.905Z,99395.77
2023-05-24T10:43:08.597Z,99398.70
2023-05-24T10:48:32.857Z,99402.75
2023-05-24T10:53:40.360Z,99407.39
2023-05-24T10:58:55.699Z,99406.30
2023-05-24T11:04:25.898Z,99407.86
2023-05-24T11:09:29.999Z,99411.63
2023-05-24T11:14:39.644Z,99413.11
2023-05-24T11:20:04.797Z,99420.16
2023-05-24T11:25:09.156Z,99415.08
2023-05-24T11:30:12.666Z,99411.05
2023-05-24T11:35:16.204Z,99411.59
2023-05-24T11:40:20.471Z,99406.55
2023-05-24T11:45:23.634Z,99404.11
2023-05-24T11:50:28.556Z,99397.34
2023-05-24T11:55:32.931Z,99394.58
2023-05-24T12:00:36.535Z,99395.08
2023-05-24T12:05:39.607Z,99397.07
2023-05-24T12:10:44.225Z,99402.04
2023-05-24T12:15:56.855Z,99394.61
2023-05-24T12:21:00.147Z,99391.00
2023-05-24T12:26:03.893Z,99386.65
2023-05-24T12:31:07.275Z,99384.80
2023-05-24T12:36:10.899Z,99387.27
2023-05-24T12:41:14.256Z,99387.27
2023-05-24T12:46:17.388Z,99385.71
2023-05-24T12:51:20.406Z,99382.25
2023-05-24T12:56:27.470Z,99376.85
2023-05-24T13:01:31.326Z,99376.98
2023-05-24T13:06:34.418Z,99370.70
2023-05-24T13:11:37.835Z,99371.87
2023-05-24T13:16:41.008Z,99368.84
2023-05-24T13:21:44.211Z,99373.83
2023-05-24T13:26:47.731Z,99369.66
2023-05-24T13:31:50.970Z,99367.96
2023-05-24T13:36:55.266Z,99372.77
2023-05-24T13:42:00.707Z,99375.17
2023-05-24T13:47:04.110Z,99376.97
2023-05-24T13:52:07.226Z,99382.37
2023-05-24T13:57:10.253Z,99382.04
2023-05-24T14:02:13.461Z,99384.49
2023-05-24T14:07:16.656Z,99384.45
2023-05-24T14:12:19.681Z,99384.85
2023-05-24T14:17:23.937Z,99383.70
2023-05-24T14:22:29.427Z,99376.64
2023-05-24T14:27:32.516Z,99373.22
2023-05-24T14:32:35.915Z,99370.70
2023-05-24T14:37:39.083Z,99381.30
2023-05-24T14:42:42.112Z,99389.02
2023-05-24T14:47:45.091Z,99403.14
2023-05-24T14:52:48.098Z,99406.89
2023-05-24T14:57:51.877Z,99412.73
2023-05-24T15:02:55.061Z,99413.08
2023-05-24T15:07:58.151Z,99409.42
2023-05-24T15:13:01.749Z,99404.91
2023-05-24T15:18:05.007Z,99396.70
2023-05-24T15:23:10.831Z,99404.85
2023-05-24T15:28:17.178Z,99416.13
2023-05-24T15:33:20.402Z,99422.11
2023-05-24T15:38:23.492Z,99426.44
2023-05-24T15:43:30.046Z,99433.19
2023-05-24T15:48:33.084Z,99444.17
2023-05-24T15:53:36.468Z,99442.52
2023-05-24T15:58:39.506Z,99439.98
2023-05-24T16:03:42.676Z,99445.48
2023-05-24T16:08:45.779Z,99461.48
2023-05-24T16:13:53.611Z,99462.31
2023-05-24T16:18:56.639Z,99468.80
2023-05-24T16:24:01.913Z,99474.64
2023-05-24T16:29:07.169Z,99482.10
2023-05-24T16:34:10.208Z,99491.61
2023-05-24T16:39:13.290Z,99499.24
2023-05-24T16:44:19.301Z,99501.39
2023-05-24T16:49:22.750Z,99502.08
2023-05-24T16:54:25.768Z,99501.66
2023-05-24T16:59:28.856Z,99508.63
2023-05-24T17:04:31.837Z,99509.25
2023-05-24T17:09:34.874Z,99508.02
2023-05-24T17:14:38.188Z,99512.30
2023-05-24T17:19:41.503Z,99516.54
2023-05-24T17:24:44.500Z,99529.61
2023-05-24T17:29:47.530Z,99532.89
2023-05-24T17:34:50.626Z,99545.21
2023-05-24T17:39:53.626Z,99558.38
2023-05-24T17:44:56.558Z,99562.65
2023-05-24T17:49:59.361Z,99578.80
2023-05-24T17:55:03.874Z,99588.68
2023-05-24T18:00:07.843Z,99597.65
2023-05-24T18:05:10.870Z,99601.63
2023-05-24T18:10:13.907Z,99606.67
2023-05-24T18:15:16.937Z,99608.89
2023-05-24T18:20:22.477Z,99617.45
2023-05-24T18:25:25.889Z,99618.52
2023-05-24T18:30:28.854Z,99624.75
2023-05-24T18:35:32.320Z,99637.35
2023-05-24T18:40:35.341Z,99654.43
2023-05-24T18:45:38.403Z,99667.22
2023-05-24T18:50:41.390Z,99676.52
2023-05-24T18:55:44.550Z,99677.75
2023-05-24T19:00:47.757Z,99688.42
2023-05-24T19:05:50.762Z,99696.92
2023-05-24T19:10:53.941Z,99704.03
2023-05-24T19:15:57.249Z,99707.16
2023-05-24T19:21:00.238Z,99705.44
2023-05-24T19:26:03.613Z,99717.52
2023-05-24T19:31:07.365Z,99730.36
2023-05-24T19:36:10.735Z,99739.14
2023-05-24T19:41:13.746Z,99744.33
2023-05-24T19:46:16.771Z,99748.98
2023-05-24T19:51:19.948Z,99752.61
2023-05-24T19:56:23.937Z,99757.70
2023-05-24T20:01:27.118Z,99756.99
2023-05-24T20:06:30.171Z,99756.23
2023-05-24T20:11:33.178Z,99758.83
2023-05-24T20:16:36.502Z,99752.58
2023-05-24T20:21:39.561Z,99744.23
2023-05-24T20:26:42.633Z,99750.95
2023-05-24T20:31:47.166Z,99760.95
2023-05-24T20:36:50.162Z,99761.85
2023-05-24T20:41:53.149Z,99769.29
2023-05-24T20:46:56.124Z,99776.83
2023-05-24T20:51:59.080Z,99782.80
2023-05-24T20:57:02.919Z,99785.67
2023-05-24T21:02:06.009Z,99789.86
2023-05-24T21:07:08.875Z,99791.96
2023-05-24T21:12:11.771Z,99789.83
2023-05-24T21:17:14.826Z,99784.30
2023-05-24T21:22:17.743Z,99781.15
2023-05-24T21:27:20.832Z,99788.43
2023-05-24T21:32:23.903Z,99799.95
2023-05-24T21:37:26.862Z,99802.13
2023-05-24T21:42:29.900Z,99802.98
2023-05-24T21:47:33.250Z,99809.27
2023-05-24T21:52:36.304Z,99807.80
2023-05-24T21:57:39.389Z,99807.71
2023-05-24T22:02:42.512Z,99811.50
2023-05-24T22:07:45.621Z,99804.71
2023-05-24T22:12:49.035Z,99802.62
2023-05-24T22:17:52.056Z,99805.23
2023-05-24T22:22:55.162Z,99809.31
2023-05-24T22:27:58.187Z,99801.88
2023-05-24T22:33:02.006Z,99806.38
2023-05-24T22:38:05.126Z,99807.55
2023-05-24T22:43:08.134Z,99811.31
2023-05-24T22:48:11.165Z,99815.29
2023-05-24T22:53:14.166Z,99819.13
2023-05-24T22:58:22.469Z,99819.98
2023-05-24T23:03:25.824Z,99812.54
2023-05-24T23:08:28.967Z,99808.86
2023-05-24T23:13:33.363Z,99812.91
2023-05-24T23:18:37.505Z,99811.52
2023-05-24T23:23:41.215Z,99813.29
2023-05-24T23:28:44.910Z,99818.70
2023-05-24T23:33:47.919Z,99822.17
2023-05-24T23:38:50.934Z,99829.57
2023-05-24T23:43:53.908Z,99828.98
2023-05-24T23:48:56.953Z,99830.23
2023-05-24T23:54:01.084Z,99834.91
2023-05-24T23:59:04.948Z,99835.42
